createdAt,value
2019-03-21T00:03:56.492Z,102200.27
2019-03-21T00:08:59.279Z,102204.27
2019-03-21T00:14:08.514Z,102209.20
2019-03-21T00:19:19.106Z,102202.35
2019-03-21T00:24:26.287Z,102181.02
2019-03-21T00:29:28.789Z,102180.41
2019-03-21T00:34:31.400Z,102183.20
2019-03-21T00:39:34.043Z,102178.70
2019-03-21T00:44:36.911Z,102185.83
2019-03-21T00:49:39.505Z,102182.87
2019-03-21T00:54:42.362Z,102186.89
2019-03-21T00:59:44.948Z,102188.38
2019-03-21T01:04:47.612Z,102177.83
2019-03-21T01:09:54.448Z,102170.89
2019-03-21T01:15:05.636Z,102170.16
2019-03-21T01:20:12.783Z,102168.73
2019-03-21T01:25:30.223Z,102166.30
2019-03-21T01:30:37.487Z,102161.80
2019-03-21T01:35:46.673Z,102164.98
2019-03-21T01:40:54.983Z,102156.73
2019-03-21T01:45:57.605Z,102156.67
2019-03-21T01:51:00.202Z,102151.62
2019-03-21T01:56:02.932Z,102145.89
2019-03-21T02:01:05.613Z,102137.61
2019-03-21T02:06:08.223Z,102131.36
2019-03-21T02:11:10.872Z,102138.70
2019-03-21T02:16:13.670Z,102134.10
2019-03-21T02:21:16.285Z,102125.41
2019-03-21T02:26:18.962Z,102117.36
2019-03-21T02:31:21.727Z,102113.95
2019-03-21T02:36:27.119Z,102108.53
2019-03-21T02:41:29.747Z,102109.77
2019-03-21T02:46:34.115Z,102116.66
2019-03-21T02:51:36.728Z,102112.34
2019-03-21T02:56:39.434Z,102109.05
2019-03-21T03:01:42.038Z,102116.80
2019-03-21T03:06:44.771Z,102120.05
2019-03-21T03:11:47.438Z,102117.30
2019-03-21T03:16:50.089Z,102119.13
2019-03-21T03:21:52.698Z,102124.73
2019-03-21T03:27:01.427Z,102128.69
2019-03-21T03:32:04.071Z,102125.23
2019-03-21T03:37:06.757Z,102135.13
2019-03-21T03:42:09.455Z,102130.17
2019-03-21T03:47:12.024Z,102127.45
2019-03-21T03:52:14.740Z,102135.06
2019-03-21T03:57:17.383Z,102129.93
2019-03-21T04:02:19.953Z,102135.92
2019-03-21T04:08:10.860Z,102138.69
2019-03-21T04:26:03.095Z,102149.59
2019-03-21T04:31:08.472Z,102150.64
2019-03-21T04:36:20.161Z,102148.89
2019-03-21T04:41:29.848Z,102146.59
2019-03-21T04:46:32.573Z,102136.66
2019-03-21T04:51:35.223Z,102147.80
2019-03-21T04:56:37.828Z,102151.80
2019-03-21T05:01:40.503Z,102156.87
2019-03-21T05:06:43.214Z,102159.63
2019-03-21T05:11:56.739Z,102167.30
2019-03-21T05:16:59.353Z,102165.33
2019-03-21T05:22:03.499Z,102162.14
2019-03-21T05:27:06.205Z,102166.05
2019-03-21T05:32:08.813Z,102176.32
2019-03-21T05:37:11.473Z,102181.31
2019-03-21T05:42:17.689Z,102187.95
2019-03-21T05:47:20.320Z,102193.30
2019-03-21T05:52:26.823Z,102203.21
2019-03-21T05:57:31.767Z,102189.56
2019-03-21T06:02:34.438Z,102208.70
2019-03-21T06:07:47.173Z,102209.31
2019-03-21T06:12:49.864Z,102214.23
2019-03-21T06:18:31.321Z,102220.00
2019-03-21T06:24:03.049Z,102232.30
2019-03-21T06:29:05.763Z,102227.47
2019-03-21T06:34:08.451Z,102234.59
2019-03-21T06:39:12.696Z,102235.58
2019-03-21T06:44:17.202Z,102242.34
2019-03-21T06:49:19.705Z,102247.25
2019-03-21T06:54:22.310Z,102243.40
2019-03-21T06:59:24.977Z,102244.05
2019-03-21T07:04:27.635Z,102237.73
2019-03-21T07:09:30.249Z,102231.36
2019-03-21T07:14:32.930Z,102238.11
2019-03-21T07:19:35.625Z,102232.07
2019-03-21T07:24:38.223Z,102234.88
2019-03-21T07:29:40.798Z,102238.83
2019-03-21T07:34:43.546Z,102233.36
2019-03-21T07:39:46.194Z,102231.62
2019-03-21T07:44:49.018Z,102238.82
2019-03-21T07:49:51.611Z,102234.45
2019-03-21T07:54:54.353Z,102239.48
2019-03-21T07:59:56.989Z,102232.23
2019-03-21T08:04:59.634Z,102232.66
2019-03-21T08:10:02.280Z,102237.50
2019-03-21T08:15:05.993Z,102234.97
2019-03-21T08:20:12.085Z,102241.47
2019-03-21T08:25:14.982Z,102234.62
2019-03-21T08:30:31.681Z,102238.34
2019-03-21T08:35:35.643Z,102241.55
2019-03-21T08:40:38.268Z,102243.26
2019-03-21T08:45:40.939Z,102244.71
2019-03-21T08:50:43.548Z,102252.31
2019-03-21T08:55:46.127Z,102246.20
2019-03-21T09:00:54.074Z,102249.14
2019-03-21T09:06:03.705Z,102240.64
2019-03-21T09:11:08.176Z,102239.82
2019-03-21T09:16:11.101Z,102233.94
2019-03-21T09:21:19.506Z,102229.87
2019-03-21T09:26:18.382Z,102230.90
2019-03-21T09:31:20.995Z,102234.63
2019-03-21T09:36:23.676Z,102232.80
2019-03-21T09:41:26.368Z,102223.19
2019-03-21T09:46:29.949Z,102231.52
2019-03-21T09:51:32.625Z,102224.61
2019-03-21T09:56:35.332Z,102227.18
2019-03-21T10:01:41.466Z,102233.70
2019-03-21T10:06:47.866Z,102227.84
2019-03-21T10:11:53.364Z,102229.23
2019-03-21T10:16:56.105Z,102219.38
2019-03-21T10:21:59.007Z,102208.35
2019-03-21T10:27:04.279Z,102211.84
2019-03-21T10:32:14.246Z,102207.14
2019-03-21T10:37:13.393Z,102206.77
2019-03-21T10:42:23.186Z,102204.61
2019-03-21T10:47:30.816Z,102200.72
2019-03-21T10:52:44.240Z,102197.84
2019-03-21T10:58:03.878Z,102192.08
2019-03-21T11:03:07.720Z,102185.09
2019-03-21T11:08:10.457Z,102182.19
2019-03-21T11:13:15.771Z,102179.08
2019-03-21T11:18:18.385Z,102175.48
2019-03-21T11:23:32.440Z,102169.77
2019-03-21T11:28:35.061Z,102175.83
2019-03-21T11:33:37.783Z,102163.61
2019-03-21T11:38:40.507Z,102158.80
2019-03-21T11:43:43.089Z,102144.47
2019-03-21T11:48:45.678Z,102142.52
2019-03-21T11:53:55.346Z,102129.32
2019-03-21T11:58:59.918Z,102125.81
2019-03-21T12:04:02.539Z,102122.32
2019-03-21T12:09:06.499Z,102118.71
2019-03-21T12:14:09.285Z,102109.13
2019-03-21T12:19:11.960Z,102108.53
2019-03-21T12:24:14.407Z,102111.55
2019-03-21T12:29:17.006Z,102105.19
2019-03-21T12:34:21.910Z,102101.16
2019-03-21T12:39:29.010Z,102091.70
2019-03-21T12:44:32.587Z,102081.44
2019-03-21T12:49:35.452Z,102078.31
2019-03-21T12:54:38.204Z,102072.97
2019-03-21T12:59:42.589Z,102076.69
2019-03-21T13:04:45.764Z,102051.77
2019-03-21T13:09:50.234Z,102051.30
2019-03-21T13:14:58.967Z,102045.09
2019-03-21T13:20:05.169Z,102044.50
2019-03-21T13:25:08.552Z,102037.98
2019-03-21T13:30:11.802Z,102035.06
2019-03-21T13:35:14.393Z,102029.11
2019-03-21T13:40:17.124Z,102016.16
2019-03-21T13:45:19.707Z,102019.65
2019-03-21T13:50:30.379Z,102004.89
2019-03-21T13:55:38.594Z,102012.67
2019-03-21T14:00:44.470Z,102009.75
2019-03-21T14:05:52.118Z,102002.08
2019-03-21T14:11:04.083Z,101992.23
2019-03-21T14:16:13.076Z,101981.45
2019-03-21T14:21:24.957Z,101974.28
2019-03-21T14:26:28.054Z,101975.74
2019-03-21T14:31:45.437Z,101965.02
2019-03-21T14:36:48.032Z,101967.62
2019-03-21T14:41:50.697Z,101966.99
2019-03-21T14:46:57.224Z,101963.66
2019-03-21T14:52:02.716Z,101965.77
2019-03-21T14:57:05.313Z,101964.09
2019-03-21T15:02:07.931Z,101961.29
2019-03-21T15:07:13.490Z,101964.00
2019-03-21T15:12:16.579Z,101960.02
2019-03-21T15:17:25.813Z,101959.60
2019-03-21T15:22:28.489Z,101955.69
2019-03-21T15:27:36.047Z,101955.14
2019-03-21T15:32:56.258Z,101954.64
2019-03-21T15:38:01.184Z,101951.36
2019-03-21T15:43:03.917Z,101944.55
2019-03-21T15:48:06.545Z,101947.59
2019-03-21T15:53:14.392Z,101940.52
2019-03-21T15:58:19.822Z,101934.00
2019-03-21T16:03:27.807Z,101935.45
2019-03-21T16:08:32.521Z,101939.59
2019-03-21T16:13:36.110Z,101932.09
2019-03-21T16:18:38.845Z,101940.19
2019-03-21T16:23:45.438Z,101932.30
2019-03-21T16:28:48.206Z,101926.42
2019-03-21T16:33:50.897Z,101925.97
2019-03-21T16:38:53.497Z,101924.66
2019-03-21T16:43:57.904Z,101926.84
2019-03-21T16:49:00.512Z,101935.32
2019-03-21T16:54:03.127Z,101933.11
2019-03-21T16:59:10.357Z,101932.33
2019-03-21T17:04:14.088Z,101928.74
2019-03-21T17:09:16.818Z,101929.91
2019-03-21T17:14:19.426Z,101936.43
2019-03-21T17:19:22.114Z,101931.91
2019-03-21T17:24:29.681Z,101932.80
2019-03-21T17:29:31.773Z,101937.91
2019-03-21T17:34:34.473Z,101944.06
2019-03-21T17:39:39.845Z,101940.38
2019-03-21T17:44:43.295Z,101942.59
2019-03-21T17:49:45.928Z,101946.98
2019-03-21T17:54:48.535Z,101948.08
2019-03-21T17:59:51.200Z,101947.40
2019-03-21T18:04:56.690Z,101950.70
2019-03-21T18:09:59.187Z,101962.84
2019-03-21T18:15:01.883Z,101972.77
2019-03-21T18:20:05.191Z,101969.20
2019-03-21T18:25:07.845Z,101969.81
2019-03-21T18:30:10.777Z,101977.97
2019-03-21T18:35:14.771Z,101980.36
2019-03-21T18:40:17.442Z,101982.77
2019-03-21T18:45:20.112Z,101990.20
2019-03-21T18:50:24.030Z,101995.20
2019-03-21T18:55:26.667Z,101995.93
2019-03-21T19:00:29.239Z,101993.52
2019-03-21T19:05:33.471Z,101993.00
2019-03-21T19:10:36.428Z,101993.48
2019-03-21T19:15:39.342Z,101998.01
2019-03-21T19:20:41.975Z,101996.88
2019-03-21T19:25:44.572Z,101995.89
2019-03-21T19:30:47.327Z,101998.73
2019-03-21T19:35:49.996Z,101998.71
2019-03-21T19:40:52.614Z,101994.62
2019-03-21T19:45:55.268Z,101990.29
2019-03-21T19:50:57.972Z,101992.17
2019-03-21T19:56:08.392Z,101982.59
2019-03-21T20:01:05.110Z,101988.78
2019-03-21T20:06:07.745Z,101994.84
2019-03-21T20:11:10.442Z,101990.63
2019-03-21T20:16:14.896Z,102000.65
2019-03-21T20:21:17.597Z,101995.58
2019-03-21T20:26:20.193Z,102003.42
2019-03-21T20:31:22.808Z,102000.84
2019-03-21T20:36:25.431Z,102002.16
2019-03-21T20:41:28.093Z,102002.93
2019-03-21T20:46:30.690Z,102004.69
2019-03-21T20:51:33.450Z,102001.03
2019-03-21T20:56:36.147Z,101997.16
2019-03-21T21:01:41.120Z,101999.61
2019-03-21T21:06:43.695Z,101989.17
2019-03-21T21:11:52.176Z,101994.02
2019-03-21T21:16:54.843Z,102004.97
2019-03-21T21:21:57.774Z,102010.17
2019-03-21T21:27:00.502Z,102006.75
2019-03-21T21:32:03.211Z,102005.87
2019-03-21T21:37:08.774Z,102010.94
2019-03-21T21:42:13.613Z,102008.52
2019-03-21T21:47:21.892Z,102018.97
2019-03-21T21:52:26.377Z,102016.19
2019-03-21T21:57:31.865Z,102004.67
2019-03-21T22:02:34.575Z,102005.83
2019-03-21T22:07:37.366Z,102001.27
2019-03-21T22:12:40.141Z,102014.59
2019-03-21T22:17:42.824Z,102010.61
2019-03-21T22:22:48.938Z,102015.67
2019-03-21T22:27:58.678Z,102018.34
2019-03-21T22:33:01.580Z,102023.89
2019-03-21T22:38:04.141Z,102023.73
2019-03-21T22:43:06.832Z,102019.27
2019-03-21T22:48:09.823Z,102022.19
2019-03-21T22:53:12.484Z,102022.84
2019-03-21T22:58:31.437Z,102015.91
2019-03-21T23:03:25.174Z,102018.25
2019-03-21T23:08:33.234Z,102019.00
2019-03-21T23:13:46.901Z,102014.53
2019-03-21T23:18:57.128Z,102008.27
2019-03-21T23:23:59.823Z,102016.42
2019-03-21T23:29:03.914Z,102018.05
2019-03-21T23:34:06.687Z,102009.16
2019-03-21T23:39:09.278Z,102007.67
2019-03-21T23:44:12.018Z,101999.52
2019-03-21T23:49:19.363Z,102006.45
2019-03-21T23:54:22.308Z,101995.79
2019-03-21T23:59:27.063Z,101999.44
